Time;durP1;ratioP1;P1;durP2;ratioP2;P2;SDS_P1;SDS_P2;PMS_P1;PMS_P2;Temp;Humidity;BMP_temperature;BMP_pressure;BME280_temperature;BME280_humidity;BME280_pressure;Samples;Min_cycle;Max_cycle;Signal;HPM_P1;HPM_P2
2023/10/03 00:00:54;;;;;;;12.85;5.40;;;;;;;;;;5159903;27;20343;-70
2023/10/03 00:03:40;;;;;;;10.93;5.65;;;;;;;;;;5160433;27;20063;-71
2023/10/03 00:06:25;;;;;;;10.95;4.53;;;;;;;;;;5174808;27;20022;-69
2023/10/03 00:09:11;;;;;;;13.07;5.50;;;;;;;;;;5160358;27;20014;-70
2023/10/03 00:11:56;;;;;;;12.85;5.40;;;;;;;;;;5160282;27;20377;-70
2023/10/03 00:14:42;;;;;;;9.18;5.40;;;;;;;;;;5159273;27;20408;-70
2023/10/03 00:17:27;;;;;;;12.30;5.18;;;;;;;;;;5174815;27;20032;-71
2023/10/03 00:20:16;;;;;;;13.73;5.63;;;;;;;;;;5175186;27;20022;-71
2023/10/03 00:23:01;;;;;;;11.07;5.47;;;;;;;;;;5174543;27;20018;-70
2023/10/03 00:25:47;;;;;;;15.80;5.38;;;;;;;;;;5174859;27;20033;-71
2023/10/03 00:28:33;;;;;;;13.65;5.97;;;;;;;;;;5174848;27;20363;-71
2023/10/03 00:31:19;;;;;;;10.18;5.00;;;;;;;;;;5174970;27;20054;-71
2023/10/03 00:34:05;;;;;;;12.40;5.32;;;;;;;;;;5160328;27;20026;-70
2023/10/03 00:36:54;;;;;;;13.75;6.00;;;;;;;;;;5159245;27;20029;-71
2023/10/03 00:39:41;;;;;;;13.50;5.53;;;;;;;;;;5174653;27;20106;-71
2023/10/03 00:42:26;;;;;;;11.95;5.35;;;;;;;;;;5174570;27;20295;-72
2023/10/03 00:45:14;;;;;;;17.90;5.93;;;;;;;;;;5174341;27;20026;-71
2023/10/03 00:48:01;;;;;;;9.52;5.50;;;;;;;;;;5174277;27;20014;-71
2023/10/03 00:50:48;;;;;;;10.18;5.40;;;;;;;;;;5174494;27;20050;-72
2023/10/03 00:53:35;;;;;;;9.98;4.78;;;;;;;;;;5174743;27;20057;-71
2023/10/03 00:56:20;;;;;;;11.93;5.63;;;;;;;;;;5159183;27;20451;-71
2023/10/03 00:59:08;;;;;;;15.35;5.40;;;;;;;;;;5174970;27;20019;-71
2023/10/03 01:01:59;;;;;;;12.00;5.32;;;;;;;;;;5158445;27;20114;-71
2023/10/03 01:04:45;;;;;;;14.18;6.13;;;;;;;;;;5174812;27;20409;-71
2023/10/03 01:07:31;;;;;;;12.75;5.80;;;;;;;;;;5174733;27;20105;-70
2023/10/03 01:10:18;;;;;;;13.48;6.20;;;;;;;;;;5158882;27;20030;-69
2023/10/03 01:13:07;;;;;;;14.43;5.57;;;;;;;;;;5174493;27;20451;-70
2023/10/03 01:15:55;;;;;;;12.07;5.78;;;;;;;;;;5158819;27;20026;-71
2023/10/03 01:18:42;;;;;;;12.48;5.78;;;;;;;;;;5174650;27;20122;-70
2023/10/03 01:21:28;;;;;;;10.32;5.60;;;;;;;;;;5177201;27;20020;-70
2023/10/03 01:24:20;;;;;;;11.77;5.80;;;;;;;;;;5177372;27;20011;-71
2023/10/03 01:27:06;;;;;;;11.55;5.38;;;;;;;;;;5176530;27;20025;-70
2023/10/03 01:29:51;;;;;;;16.20;6.35;;;;;;;;;;5161625;27;20014;-71
2023/10/03 01:32:39;;;;;;;13.13;5.80;;;;;;;;;;5177670;27;20022;-69
2023/10/03 01:35:25;;;;;;;12.73;5.68;;;;;;;;;;5178234;27;20018;-70
2023/10/03 01:38:14;;;;;;;11.57;5.90;;;;;;;;;;5161405;27;20389;-70
2023/10/03 01:41:03;;;;;;;14.07;6.05;;;;;;;;;;5178711;27;20109;-69
2023/10/03 01:43:49;;;;;;;13.50;5.93;;;;;;;;;;5163398;27;20400;-70
2023/10/03 01:46:35;;;;;;;10.20;5.40;;;;;;;;;;5177500;27;20033;-71
2023/10/03 01:49:21;;;;;;;11.18;5.68;;;;;;;;;;5178125;27;20552;-71
2023/10/03 01:52:06;;;;;;;13.82;5.82;;;;;;;;;;5177618;27;20030;-70
2023/10/03 01:54:52;;;;;;;12.75;5.35;;;;;;;;;;5177454;27;20014;-70
2023/10/03 01:57:41;;;;;;;12.98;5.65;;;;;;;;;;5178144;27;20026;-70
2023/10/03 02:00:27;;;;;;;10.55;6.03;;;;;;;;;;5177137;27;20018;-71
2023/10/03 02:03:16;;;;;;;19.00;6.20;;;;;;;;;;5162702;27;20028;-70
2023/10/03 02:06:03;;;;;;;12.18;5.88;;;;;;;;;;5177484;27;20022;-70
2023/10/03 02:08:50;;;;;;;14.68;6.28;;;;;;;;;;5177520;27;20495;-71
2023/10/03 02:11:35;;;;;;;9.60;5.25;;;;;;;;;;5177335;27;20021;-70
2023/10/03 02:14:22;;;;;;;13.82;5.50;;;;;;;;;;5176829;27;20100;-71
2023/10/03 02:17:08;;;;;;;11.20;5.85;;;;;;;;;;5161160;27;20014;-71
2023/10/03 02:19:54;;;;;;;14.52;5.93;;;;;;;;;;5178044;27;20520;-70
2023/10/03 02:22:39;;;;;;;12.13;5.93;;;;;;;;;;5176001;27;20022;-70
2023/10/03 02:25:26;;;;;;;16.17;5.90;;;;;;;;;;5175501;27;20422;-69
2023/10/03 02:28:14;;;;;;;16.20;5.80;;;;;;;;;;5176048;27;20420;-71
2023/10/03 02:31:02;;;;;;;12.60;5.53;;;;;;;;;;5175350;27;20368;-69
2023/10/03 02:33:49;;;;;;;14.38;6.13;;;;;;;;;;5155209;27;20062;-71
2023/10/03 02:36:35;;;;;;;10.98;5.30;;;;;;;;;;5156289;27;20191;-71
2023/10/03 02:39:25;;;;;;;14.63;6.45;;;;;;;;;;5156186;27;20021;-72
2023/10/03 02:42:10;;;;;;;22.08;8.15;;;;;;;;;;5155755;27;20019;-71
2023/10/03 02:44:58;;;;;;;12.18;5.82;;;;;;;;;;5155173;27;20087;-71
2023/10/03 02:47:44;;;;;;;11.52;5.97;;;;;;;;;;5156217;27;20019;-73
2023/10/03 02:50:33;;;;;;;20.55;6.47;;;;;;;;;;5155427;27;20358;-71
2023/10/03 02:53:20;;;;;;;10.98;5.65;;;;;;;;;;5154879;27;20030;-69
2023/10/03 02:56:07;;;;;;;12.70;5.88;;;;;;;;;;5154900;27;20398;-70
2023/10/03 02:58:52;;;;;;;13.23;5.90;;;;;;;;;;5155388;27;20029;-70
2023/10/03 03:01:38;;;;;;;14.82;6.18;;;;;;;;;;5155481;27;20371;-70
2023/10/03 03:04:24;;;;;;;13.02;5.85;;;;;;;;;;5154400;27;20068;-71
2023/10/03 03:07:10;;;;;;;12.57;5.50;;;;;;;;;;5155890;27;20110;-71
2023/10/03 03:09:59;;;;;;;17.65;6.15;;;;;;;;;;5155091;27;20034;-70
2023/10/03 03:12:46;;;;;;;10.48;5.15;;;;;;;;;;5155065;27;20030;-70
2023/10/03 03:15:36;;;;;;;13.25;5.22;;;;;;;;;;5153746;27;20401;-69
2023/10/03 03:18:23;;;;;;;12.50;5.55;;;;;;;;;;5154811;27;20042;-70
2023/10/03 03:21:13;;;;;;;10.63;4.90;;;;;;;;;;5155146;27;20060;-71
2023/10/03 03:24:08;;;;;;;11.07;5.00;;;;;;;;;;5155110;27;20018;-70
2023/10/03 03:26:57;;;;;;;12.13;5.68;;;;;;;;;;5154526;27;20106;-70
2023/10/03 03:32:47;;;;;;;10.50;5.00;;;;;;;;;;5172098;27;20328;-70
2023/10/03 03:35:39;;;;;;;12.70;5.43;;;;;;;;;;5174804;27;20045;-69
2023/10/03 03:38:25;;;;;;;15.20;4.93;;;;;;;;;;5175407;27;20022;-71
2023/10/03 03:41:12;;;;;;;13.63;5.60;;;;;;;;;;5175586;27;20018;-71
2023/10/03 03:43:59;;;;;;;11.88;5.63;;;;;;;;;;5173927;27;20018;-69
2023/10/03 03:46:45;;;;;;;21.00;6.15;;;;;;;;;;5176021;27;20022;-71
2023/10/03 03:49:31;;;;;;;17.48;7.18;;;;;;;;;;5174559;27;20050;-72
2023/10/03 03:52:16;;;;;;;12.07;6.43;;;;;;;;;;5173809;27;20032;-69
2023/10/03 03:55:04;;;;;;;23.05;7.13;;;;;;;;;;5175683;27;20336;-71
2023/10/03 03:57:51;;;;;;;19.23;6.90;;;;;;;;;;5175019;27;20037;-69
2023/10/03 04:00:38;;;;;;;18.50;7.07;;;;;;;;;;5161910;27;20030;-70
2023/10/03 04:03:51;;;;;;;18.50;7.38;;;;;;;;;;5160267;27;20026;-72
2023/10/03 04:06:37;;;;;;;21.85;7.53;;;;;;;;;;5174715;27;20061;-71
2023/10/03 04:09:22;;;;;;;15.82;7.28;;;;;;;;;;5175455;27;20034;-70
2023/10/03 04:12:08;;;;;;;17.70;6.95;;;;;;;;;;5175072;27;20101;-71
2023/10/03 04:14:53;;;;;;;20.90;6.78;;;;;;;;;;5160815;27;20033;-71
2023/10/03 04:17:42;;;;;;;20.55;7.15;;;;;;;;;;5175269;27;20363;-70
2023/10/03 04:20:31;;;;;;;17.83;6.70;;;;;;;;;;5175503;27;20396;-70
2023/10/03 04:23:17;;;;;;;19.30;7.10;;;;;;;;;;5176045;27;20029;-71
2023/10/03 04:26:04;;;;;;;25.80;9.27;;;;;;;;;;5176362;27;20036;-70
2023/10/03 04:28:49;;;;;;;19.70;6.72;;;;;;;;;;5175968;27;20019;-71
2023/10/03 04:31:37;;;;;;;18.88;7.05;;;;;;;;;;5160559;27;20022;-71
2023/10/03 04:34:22;;;;;;;16.73;6.57;;;;;;;;;;5174571;27;20116;-71
2023/10/03 04:37:10;;;;;;;16.23;6.47;;;;;;;;;;5176039;27;20018;-71
2023/10/03 04:39:56;;;;;;;16.63;6.25;;;;;;;;;;5175359;27;20022;-70
2023/10/03 04:42:44;;;;;;;15.05;5.70;;;;;;;;;;5175040;27;20022;-71
2023/10/03 04:45:29;;;;;;;14.25;6.03;;;;;;;;;;5175802;27;20435;-71
2023/10/03 04:48:15;;;;;;;28.85;6.32;;;;;;;;;;5176032;27;20120;-72
2023/10/03 04:51:00;;;;;;;21.88;7.18;;;;;;;;;;5175757;27;20049;-70
2023/10/03 04:53:46;;;;;;;14.27;6.13;;;;;;;;;;5177237;27;20033;-71
2023/10/03 04:56:32;;;;;;;19.50;6.18;;;;;;;;;;5180350;27;20154;-71
2023/10/03 04:59:19;;;;;;;17.83;6.45;;;;;;;;;;5164016;27;20029;-71
2023/10/03 05:02:04;;;;;;;64.32;8.88;;;;;;;;;;5165235;27;20033;-70
2023/10/03 05:04:50;;;;;;;24.52;7.18;;;;;;;;;;5164316;27;20440;-71
2023/10/03 05:07:36;;;;;;;23.10;7.88;;;;;;;;;;5180109;27;20086;-72
2023/10/03 05:10:22;;;;;;;14.77;7.40;;;;;;;;;;5177980;27;20020;-70
2023/10/03 05:13:08;;;;;;;17.95;7.57;;;;;;;;;;5179413;27;20033;-71
2023/10/03 05:15:54;;;;;;;25.55;7.65;;;;;;;;;;5179560;27;20129;-70
2023/10/03 05:18:40;;;;;;;16.58;6.88;;;;;;;;;;5177989;27;20014;-70
2023/10/03 05:21:25;;;;;;;16.73;7.28;;;;;;;;;;5164388;27;20428;-71
2023/10/03 05:24:11;;;;;;;17.73;6.95;;;;;;;;;;5163962;27;20022;-71
2023/10/03 05:26:58;;;;;;;18.58;7.47;;;;;;;;;;5177976;27;20026;-70
2023/10/03 05:29:44;;;;;;;18.77;6.53;;;;;;;;;;5163539;27;20022;-70
2023/10/03 05:32:29;;;;;;;18.55;6.20;;;;;;;;;;5164599;27;20393;-70
2023/10/03 05:35:15;;;;;;;20.08;6.75;;;;;;;;;;5177640;27;20022;-70
2023/10/03 05:38:06;;;;;;;15.38;6.03;;;;;;;;;;5164801;27;20444;-71
2023/10/03 05:40:52;;;;;;;14.20;6.43;;;;;;;;;;5178803;27;20392;-69
2023/10/03 05:43:38;;;;;;;17.35;7.05;;;;;;;;;;5163125;27;20022;-71
2023/10/03 05:46:23;;;;;;;22.55;6.93;;;;;;;;;;5177351;27;20049;-71
2023/10/03 05:49:09;;;;;;;22.55;7.55;;;;;;;;;;5163110;27;20392;-70
2023/10/03 05:51:57;;;;;;;22.55;8.05;;;;;;;;;;5177607;27;20109;-70
2023/10/03 05:54:43;;;;;;;24.83;8.02;;;;;;;;;;5177962;27;20074;-70
2023/10/03 05:57:28;;;;;;;22.85;7.75;;;;;;;;;;5162882;27;20014;-70
2023/10/03 06:00:18;;;;;;;21.40;7.50;;;;;;;;;;5177383;27;20396;-69
2023/10/03 06:03:04;;;;;;;16.90;7.00;;;;;;;;;;5178329;27;20049;-69
2023/10/03 06:05:50;;;;;;;15.82;7.38;;;;;;;;;;5161682;27;20033;-71
2023/10/03 06:08:36;;;;;;;15.55;6.90;;;;;;;;;;5178788;27;20041;-71
2023/10/03 06:11:21;;;;;;;17.40;7.43;;;;;;;;;;5177424;27;20018;-69
2023/10/03 06:14:07;;;;;;;20.17;7.07;;;;;;;;;;5178219;27;20436;-70
2023/10/03 06:16:53;;;;;;;17.15;6.68;;;;;;;;;;5178090;27;20023;-71
2023/10/03 06:19:38;;;;;;;20.08;7.03;;;;;;;;;;5176930;27;20105;-69
2023/10/03 06:22:24;;;;;;;15.90;6.82;;;;;;;;;;5178767;27;20029;-70
2023/10/03 06:25:10;;;;;;;19.50;6.35;;;;;;;;;;5178614;27;20018;-71
2023/10/03 06:27:57;;;;;;;20.88;6.70;;;;;;;;;;5178043;27;20026;-70
2023/10/03 06:30:42;;;;;;;21.25;6.80;;;;;;;;;;5177794;27;20022;-70
2023/10/03 06:33:28;;;;;;;16.08;6.82;;;;;;;;;;5177334;27;20022;-69
2023/10/03 06:36:13;;;;;;;13.60;6.70;;;;;;;;;;5163300;27;20037;-70
2023/10/03 06:38:59;;;;;;;14.70;6.50;;;;;;;;;;5177765;27;20369;-69
2023/10/03 06:41:44;;;;;;;18.27;6.95;;;;;;;;;;5178046;27;20503;-70
2023/10/03 06:44:30;;;;;;;15.00;8.00;;;;;;;;;;5177549;27;20017;-69
2023/10/03 06:47:17;;;;;;;21.08;8.23;;;;;;;;;;5177404;27;20030;-70
2023/10/03 06:50:05;;;;;;;35.22;7.50;;;;;;;;;;5176052;27;20125;-70
2023/10/03 06:52:52;;;;;;;18.98;7.35;;;;;;;;;;5176389;27;20062;-70
2023/10/03 06:55:37;;;;;;;15.05;7.32;;;;;;;;;;5177632;27;20491;-69
2023/10/03 06:58:23;;;;;;;18.15;7.00;;;;;;;;;;5177394;27;20109;-70
2023/10/03 07:01:11;;;;;;;20.63;7.55;;;;;;;;;;5177569;27;20018;-69
2023/10/03 07:03:58;;;;;;;14.43;7.13;;;;;;;;;;5175914;27;20498;-69
2023/10/03 07:06:43;;;;;;;15.70;7.15;;;;;;;;;;5161324;27;20110;-69
2023/10/03 07:09:29;;;;;;;20.50;6.72;;;;;;;;;;5176247;27;20018;-70
2023/10/03 07:12:15;;;;;;;15.27;6.68;;;;;;;;;;5175584;27;20105;-70
2023/10/03 07:15:01;;;;;;;13.32;6.28;;;;;;;;;;5177093;27;20015;-70
2023/10/03 07:17:46;;;;;;;15.68;6.50;;;;;;;;;;5175720;27;20025;-69
2023/10/03 07:20:32;;;;;;;18.23;6.38;;;;;;;;;;5180475;27;20011;-70
2023/10/03 07:23:19;;;;;;;15.02;7.25;;;;;;;;;;5164899;27;20018;-70
2023/10/03 07:26:11;;;;;;;18.90;7.28;;;;;;;;;;5179518;27;20040;-71
2023/10/03 07:29:02;;;;;;;23.02;7.38;;;;;;;;;;5178030;27;20022;-70
2023/10/03 07:31:47;;;;;;;24.38;7.30;;;;;;;;;;5175854;27;20026;-70
2023/10/03 07:34:33;;;;;;;16.25;6.88;;;;;;;;;;5175890;27;20070;-70
2023/10/03 07:37:18;;;;;;;18.95;7.28;;;;;;;;;;5176723;27;20042;-69
2023/10/03 07:40:06;;;;;;;26.38;7.57;;;;;;;;;;5174974;27;20022;-70
2023/10/03 07:42:52;;;;;;;26.25;7.40;;;;;;;;;;5178127;27;20037;-70
2023/10/03 07:45:38;;;;;;;17.50;6.63;;;;;;;;;;5176034;27;20026;-70
2023/10/03 07:48:24;;;;;;;13.82;7.20;;;;;;;;;;5174935;27;20041;-70
2023/10/03 07:51:14;;;;;;;22.70;8.73;;;;;;;;;;5160949;27;20447;-70
2023/10/03 07:54:00;;;;;;;15.50;6.55;;;;;;;;;;5160859;27;20359;-71
2023/10/03 07:56:48;;;;;;;17.95;7.38;;;;;;;;;;5176019;27;20015;-70
2023/10/03 07:59:33;;;;;;;13.48;6.15;;;;;;;;;;5161323;27;20030;-70
2023/10/03 08:02:26;;;;;;;13.98;6.50;;;;;;;;;;5174842;27;20439;-70
2023/10/03 08:05:12;;;;;;;15.25;6.47;;;;;;;;;;5162629;27;20018;-72
2023/10/03 08:08:02;;;;;;;16.83;6.65;;;;;;;;;;5175456;27;20476;-71
2023/10/03 08:10:49;;;;;;;17.08;6.10;;;;;;;;;;5176118;27;20030;-70
2023/10/03 08:13:38;;;;;;;16.15;6.10;;;;;;;;;;5161525;27;20097;-70
2023/10/03 08:16:24;;;;;;;19.52;6.35;;;;;;;;;;5160601;27;20101;-70
2023/10/03 08:19:25;;;;;;;14.95;5.90;;;;;;;;;;5160735;27;20014;-70
2023/10/03 08:22:12;;;;;;;14.75;5.90;;;;;;;;;;5174834;27;20045;-70
2023/10/03 08:24:59;;;;;;;12.23;5.82;;;;;;;;;;5160719;27;20034;-70
2023/10/03 08:27:46;;;;;;;13.60;5.70;;;;;;;;;;5175345;27;20436;-71
2023/10/03 08:30:35;;;;;;;12.68;5.80;;;;;;;;;;5165419;27;20046;-70
2023/10/03 08:33:22;;;;;;;13.32;5.43;;;;;;;;;;5164330;27;20401;-70
2023/10/03 08:36:14;;;;;;;9.30;5.18;;;;;;;;;;5180793;27;20020;-71
2023/10/03 08:39:15;;;;;;;16.35;5.35;;;;;;;;;;5164240;27;20011;-72
2023/10/03 08:42:17;;;;;;;13.98;5.00;;;;;;;;;;5152879;27;20091;-71
2023/10/03 08:45:16;;;;;;;11.98;4.97;;;;;;;;;;5160542;27;20033;-71
2023/10/03 08:48:06;;;;;;;28.70;6.60;;;;;;;;;;5179969;27;20022;-71
2023/10/03 08:50:53;;;;;;;13.50;5.60;;;;;;;;;;5179096;27;20042;-70
2023/10/03 08:53:47;;;;;;;13.00;5.20;;;;;;;;;;5179858;27;20105;-70
2023/10/03 08:56:35;;;;;;;16.83;6.05;;;;;;;;;;5164822;27;20021;-69
2023/10/03 08:59:21;;;;;;;14.15;5.15;;;;;;;;;;5179543;27;20082;-71
2023/10/03 09:02:11;;;;;;;19.30;5.40;;;;;;;;;;5180358;27;20450;-70
2023/10/03 09:04:57;;;;;;;12.98;5.50;;;;;;;;;;5181294;27;20018;-70
2023/10/03 09:07:50;;;;;;;18.25;5.28;;;;;;;;;;5179712;27;20332;-70
2023/10/03 09:10:51;;;;;;;13.10;5.78;;;;;;;;;;5179590;27;20345;-70
2023/10/03 09:13:36;;;;;;;14.23;5.00;;;;;;;;;;5179319;27;20121;-69
2023/10/03 09:16:23;;;;;;;15.30;5.07;;;;;;;;;;5180007;27;20120;-70
2023/10/03 09:19:09;;;;;;;15.52;4.70;;;;;;;;;;5180314;27;20023;-72
2023/10/03 09:21:55;;;;;;;11.68;4.32;;;;;;;;;;5178917;27;20481;-72
2023/10/03 09:24:44;;;;;;;14.55;5.10;;;;;;;;;;5178879;27;20029;-70
2023/10/03 09:27:31;;;;;;;19.63;4.47;;;;;;;;;;5164383;27;20019;-70
2023/10/03 09:30:22;;;;;;;24.40;4.65;;;;;;;;;;5162614;27;20158;-70
2023/10/03 09:33:08;;;;;;;13.75;4.53;;;;;;;;;;5178053;27;20025;-69
2023/10/03 09:36:00;;;;;;;8.77;4.05;;;;;;;;;;5179479;27;20033;-70
2023/10/03 09:38:47;;;;;;;13.88;4.22;;;;;;;;;;5177963;27;20018;-70
2023/10/03 09:41:38;;;;;;;27.13;4.85;;;;;;;;;;5177177;27;20029;-70
2023/10/03 09:44:30;;;;;;;11.98;3.50;;;;;;;;;;5177806;27;20499;-69
2023/10/03 09:47:19;;;;;;;9.10;4.13;;;;;;;;;;5163429;27;20528;-70
2023/10/03 09:50:07;;;;;;;8.73;3.88;;;;;;;;;;5177487;27;20456;-70
2023/10/03 09:52:53;;;;;;;8.15;3.55;;;;;;;;;;5164208;27;20045;-69
2023/10/03 09:55:46;;;;;;;12.93;3.67;;;;;;;;;;5177359;27;20424;-70
2023/10/03 09:58:32;;;;;;;11.52;3.92;;;;;;;;;;5164418;27;20097;-70
2023/10/03 10:01:18;;;;;;;7.80;3.65;;;;;;;;;;5177922;27;20105;-70
2023/10/03 10:04:07;;;;;;;14.20;4.53;;;;;;;;;;5178521;27;20026;-70
2023/10/03 10:07:14;;;;;;;13.30;6.05;;;;;;;;;;5178161;27;20150;-70
2023/10/03 10:10:07;;;;;;;8.65;4.90;;;;;;;;;;5178296;27;20372;-69
2023/10/03 10:13:13;;;;;;;8.02;4.20;;;;;;;;;;5177077;27;20026;-70
2023/10/03 10:16:07;;;;;;;8.20;4.15;;;;;;;;;;5177308;27;20504;-70
2023/10/03 10:18:54;;;;;;;8.98;4.05;;;;;;;;;;5178172;27;20022;-69
2023/10/03 10:21:50;;;;;;;8.13;4.28;;;;;;;;;;5178658;27;20019;-70
2023/10/03 10:24:40;;;;;;;10.90;4.68;;;;;;;;;;5163889;27;20082;-70
2023/10/03 10:27:29;;;;;;;9.63;4.05;;;;;;;;;;5177418;27;20115;-70
2023/10/03 10:30:14;;;;;;;7.28;3.85;;;;;;;;;;5177630;27;20025;-70
2023/10/03 10:33:18;;;;;;;7.53;4.10;;;;;;;;;;5177214;27;20021;-69
2023/10/03 10:36:07;;;;;;;7.97;3.83;;;;;;;;;;5162942;27;20037;-70
2023/10/03 10:38:53;;;;;;;7.78;3.70;;;;;;;;;;5178806;27;20106;-70
2023/10/03 10:41:38;;;;;;;8.07;4.07;;;;;;;;;;5177234;27;20018;-70
2023/10/03 10:44:24;;;;;;;9.10;4.10;;;;;;;;;;5176959;27;20053;-70
2023/10/03 10:47:10;;;;;;;9.45;4.13;;;;;;;;;;5176907;27;20011;-70
2023/10/03 10:49:56;;;;;;;11.25;4.32;;;;;;;;;;5176805;27;20050;-70
2023/10/03 10:53:02;;;;;;;12.55;4.20;;;;;;;;;;5177621;27;20363;-70
2023/10/03 10:55:47;;;;;;;9.45;4.10;;;;;;;;;;5176583;27;20428;-70
2023/10/03 10:58:44;;;;;;;10.20;4.30;;;;;;;;;;5176938;27;20414;-70
2023/10/03 11:01:30;;;;;;;8.25;4.30;;;;;;;;;;5161667;27;20026;-69
2023/10/03 11:04:25;;;;;;;12.73;4.10;;;;;;;;;;5175724;27;20030;-71
2023/10/03 11:07:19;;;;;;;10.32;4.47;;;;;;;;;;5148536;27;20030;-71
2023/10/03 11:10:07;;;;;;;11.23;4.43;;;;;;;;;;5162269;27;20460;-71
2023/10/03 11:13:05;;;;;;;6.25;3.88;;;;;;;;;;5176307;27;20336;-70
2023/10/03 11:15:51;;;;;;;11.93;4.60;;;;;;;;;;5177743;27;20038;-70
2023/10/03 11:18:38;;;;;;;10.27;4.40;;;;;;;;;;5177041;27;20047;-70
2023/10/03 11:21:23;;;;;;;10.32;4.50;;;;;;;;;;5177470;27;20404;-70
2023/10/03 11:24:15;;;;;;;11.00;4.97;;;;;;;;;;5176724;27;20036;-69
2023/10/03 11:27:01;;;;;;;9.10;4.38;;;;;;;;;;5176678;27;20029;-70
2023/10/03 11:29:46;;;;;;;9.73;4.28;;;;;;;;;;5175684;27;20439;-69
2023/10/03 11:32:33;;;;;;;9.63;4.38;;;;;;;;;;5176710;27;20447;-70
2023/10/03 11:35:20;;;;;;;9.35;4.18;;;;;;;;;;5176207;27;20022;-70
2023/10/03 11:38:06;;;;;;;9.27;4.47;;;;;;;;;;5175265;27;20443;-70
2023/10/03 11:40:52;;;;;;;8.55;4.25;;;;;;;;;;5160555;27;20022;-70
2023/10/03 11:43:46;;;;;;;12.00;4.53;;;;;;;;;;5176231;27;20033;-70
2023/10/03 11:46:38;;;;;;;9.88;4.80;;;;;;;;;;5175030;27;20098;-70
2023/10/03 11:49:24;;;;;;;11.25;4.90;;;;;;;;;;5175317;27;20046;-70
2023/10/03 11:52:10;;;;;;;11.30;5.30;;;;;;;;;;5175325;27;20105;-69
2023/10/03 11:54:56;;;;;;;10.60;6.00;;;;;;;;;;5176349;27;20030;-70
2023/10/03 11:57:42;;;;;;;15.05;5.00;;;;;;;;;;5176301;27;20090;-70
2023/10/03 12:00:28;;;;;;;11.38;5.10;;;;;;;;;;5175675;27;20018;-69
2023/10/03 12:03:14;;;;;;;10.07;4.47;;;;;;;;;;5175399;27;20030;-70
2023/10/03 12:05:59;;;;;;;11.85;5.10;;;;;;;;;;5175546;27;20026;-70
2023/10/03 12:08:45;;;;;;;10.57;5.25;;;;;;;;;;5176634;27;20098;-70
2023/10/03 12:11:30;;;;;;;11.32;6.07;;;;;;;;;;5176100;27;20121;-69
2023/10/03 12:14:16;;;;;;;11.55;5.50;;;;;;;;;;5176080;27;20042;-69
2023/10/03 12:17:02;;;;;;;10.35;5.47;;;;;;;;;;5177775;27;20041;-69
2023/10/03 12:19:47;;;;;;;12.07;5.38;;;;;;;;;;5177391;27;20463;-70
2023/10/03 12:22:33;;;;;;;9.32;5.32;;;;;;;;;;5177473;27;20053;-72
2023/10/03 12:25:21;;;;;;;11.20;5.75;;;;;;;;;;5177451;27;20359;-70
2023/10/03 12:28:09;;;;;;;11.40;5.53;;;;;;;;;;5176030;27;20121;-70
2023/10/03 12:30:55;;;;;;;15.73;5.65;;;;;;;;;;5175640;27;20027;-70
2023/10/03 12:33:41;;;;;;;17.75;5.10;;;;;;;;;;5175019;27;20676;-70
2023/10/03 12:36:32;;;;;;;12.30;4.97;;;;;;;;;;5160392;27;20022;-69
2023/10/03 12:39:20;;;;;;;11.88;5.35;;;;;;;;;;5168333;27;20447;-69
2023/10/03 12:42:06;;;;;;;10.23;5.55;;;;;;;;;;5174775;27;20045;-69
2023/10/03 12:44:52;;;;;;;12.15;5.50;;;;;;;;;;5174588;27;20014;-72
2023/10/03 12:47:39;;;;;;;13.93;6.20;;;;;;;;;;5160828;27;20022;-73
2023/10/03 12:50:27;;;;;;;11.90;5.47;;;;;;;;;;5160336;27;20337;-74
2023/10/03 12:53:12;;;;;;;10.60;5.43;;;;;;;;;;5175091;27;20018;-73
2023/10/03 12:55:58;;;;;;;11.40;5.75;;;;;;;;;;5188048;27;20070;-73
2023/10/03 12:58:45;;;;;;;8.75;5.15;;;;;;;;;;5158886;27;20079;-72
2023/10/03 13:01:31;;;;;;;12.27;5.65;;;;;;;;;;5139728;27;20011;-72
2023/10/03 13:04:18;;;;;;;10.55;5.68;;;;;;;;;;5153332;27;20015;-73
2023/10/03 13:07:04;;;;;;;14.57;6.20;;;;;;;;;;5156001;27;20470;-73
2023/10/03 13:09:49;;;;;;;12.00;5.70;;;;;;;;;;5139228;27;20083;-72
2023/10/03 13:12:35;;;;;;;13.98;5.47;;;;;;;;;;5138934;27;20094;-73
2023/10/03 13:15:21;;;;;;;11.80;5.50;;;;;;;;;;5157055;27;20034;-73
2023/10/03 13:18:13;;;;;;;12.40;5.43;;;;;;;;;;5157663;27;20026;-75
2023/10/03 13:20:59;;;;;;;9.27;5.40;;;;;;;;;;5160761;27;20057;-75
2023/10/03 13:23:46;;;;;;;15.70;6.20;;;;;;;;;;5145900;27;20031;-75
2023/10/03 13:26:31;;;;;;;12.43;5.97;;;;;;;;;;5142437;27;20105;-74
2023/10/03 13:29:17;;;;;;;8.70;5.30;;;;;;;;;;5142134;27;20101;-74
2023/10/03 13:32:03;;;;;;;10.35;5.45;;;;;;;;;;5156929;27;20364;-75
2023/10/03 13:34:48;;;;;;;11.43;6.18;;;;;;;;;;5161703;27;20018;-76
2023/10/03 13:37:35;;;;;;;11.05;5.07;;;;;;;;;;5177225;27;20486;-75
2023/10/03 13:40:21;;;;;;;8.68;4.95;;;;;;;;;;5164634;27;20010;-74
2023/10/03 13:43:07;;;;;;;11.98;5.95;;;;;;;;;;5178021;27;20026;-74
2023/10/03 13:45:56;;;;;;;14.40;6.13;;;;;;;;;;5180726;27;20074;-73
2023/10/03 13:48:42;;;;;;;12.13;5.70;;;;;;;;;;5177354;27;20038;-73
2023/10/03 13:51:31;;;;;;;10.60;5.30;;;;;;;;;;5163566;27;20034;-74
2023/10/03 13:54:16;;;;;;;13.30;5.10;;;;;;;;;;5176740;27;20029;-72
2023/10/03 13:57:05;;;;;;;9.45;4.82;;;;;;;;;;5162544;27;20010;-73
2023/10/03 13:59:51;;;;;;;11.68;5.53;;;;;;;;;;5177478;27;20078;-72
2023/10/03 14:02:37;;;;;;;13.05;5.22;;;;;;;;;;5177004;27;20097;-73
2023/10/03 14:05:23;;;;;;;11.73;5.55;;;;;;;;;;5177116;27;20072;-73
2023/10/03 14:08:08;;;;;;;12.45;5.40;;;;;;;;;;5162776;27;20345;-73
2023/10/03 14:10:54;;;;;;;9.50;4.70;;;;;;;;;;5162565;27;20018;-73
2023/10/03 14:13:41;;;;;;;11.95;5.10;;;;;;;;;;5176505;27;20021;-72
2023/10/03 14:16:26;;;;;;;14.13;5.65;;;;;;;;;;5177095;27;20032;-74
2023/10/03 14:19:12;;;;;;;13.43;5.72;;;;;;;;;;5177478;27;20050;-73
2023/10/03 14:22:02;;;;;;;15.25;5.45;;;;;;;;;;5161846;27;20025;-73
2023/10/03 14:24:48;;;;;;;11.32;4.95;;;;;;;;;;5176727;27;20066;-73
2023/10/03 14:27:34;;;;;;;13.85;5.28;;;;;;;;;;5176216;27;20030;-75
2023/10/03 14:30:20;;;;;;;9.30;5.13;;;;;;;;;;5162555;27;20025;-73
2023/10/03 14:33:09;;;;;;;12.50;5.55;;;;;;;;;;5176462;27;20082;-72
2023/10/03 14:35:58;;;;;;;9.10;4.97;;;;;;;;;;5177365;27;20371;-72
2023/10/03 14:38:45;;;;;;;31.73;5.97;;;;;;;;;;5177150;27;20018;-74
2023/10/03 14:41:31;;;;;;;27.65;6.85;;;;;;;;;;5175694;27;20074;-72
2023/10/03 14:44:16;;;;;;;13.18;5.60;;;;;;;;;;5162646;27;20133;-73
2023/10/03 14:47:02;;;;;;;12.40;5.50;;;;;;;;;;5160580;27;20045;-74
2023/10/03 14:49:47;;;;;;;17.60;5.50;;;;;;;;;;5176768;27;20046;-73
2023/10/03 14:52:34;;;;;;;12.13;5.40;;;;;;;;;;5176539;27;20022;-76
2023/10/03 14:55:27;;;;;;;11.77;5.75;;;;;;;;;;5176543;27;20030;-73
2023/10/03 14:58:14;;;;;;;11.90;5.22;;;;;;;;;;5177484;27;20010;-72
2023/10/03 15:01:05;;;;;;;22.88;6.25;;;;;;;;;;5176685;27;20025;-72
2023/10/03 15:03:52;;;;;;;20.38;6.15;;;;;;;;;;5176419;27;20018;-73
2023/10/03 15:06:38;;;;;;;20.65;6.65;;;;;;;;;;5161826;27;20026;-73
2023/10/03 15:09:24;;;;;;;17.30;6.63;;;;;;;;;;5179925;27;20031;-72
2023/10/03 15:12:10;;;;;;;17.90;7.20;;;;;;;;;;5178591;27;20025;-74
2023/10/03 15:14:56;;;;;;;17.30;6.78;;;;;;;;;;5177041;27;20026;-74
2023/10/03 15:17:42;;;;;;;10.88;6.18;;;;;;;;;;5177776;27;20022;-73
2023/10/03 15:20:27;;;;;;;13.23;6.47;;;;;;;;;;5177103;27;20400;-72
2023/10/03 15:23:13;;;;;;;21.35;6.60;;;;;;;;;;5187814;27;20078;-73
2023/10/03 15:25:59;;;;;;;13.43;6.22;;;;;;;;;;5193905;27;20333;-72
2023/10/03 15:28:45;;;;;;;12.63;5.65;;;;;;;;;;5193557;27;20512;-72
2023/10/03 15:31:34;;;;;;;13.07;6.00;;;;;;;;;;5180583;27;20023;-74
2023/10/03 15:34:30;;;;;;;19.48;6.72;;;;;;;;;;5178038;27;20026;-72
2023/10/03 15:37:17;;;;;;;16.90;7.03;;;;;;;;;;5173369;27;20492;-72
2023/10/03 15:40:04;;;;;;;18.50;6.88;;;;;;;;;;5172161;27;20072;-74
2023/10/03 15:42:49;;;;;;;35.05;9.88;;;;;;;;;;5173131;27;20019;-72
2023/10/03 15:45:35;;;;;;;27.65;9.30;;;;;;;;;;5173641;27;20042;-72
2023/10/03 15:48:22;;;;;;;29.48;9.68;;;;;;;;;;5174731;27;20019;-71
2023/10/03 15:51:13;;;;;;;29.67;8.90;;;;;;;;;;5174584;27;20038;-73
2023/10/03 15:54:01;;;;;;;21.25;9.02;;;;;;;;;;5172414;27;20037;-72
2023/10/03 15:56:46;;;;;;;24.67;9.35;;;;;;;;;;5174453;27;20018;-73
2023/10/03 15:59:33;;;;;;;26.02;10.05;;;;;;;;;;5158373;27;20080;-73
2023/10/03 16:02:20;;;;;;;34.85;13.88;;;;;;;;;;5156403;27;20023;-74
2023/10/03 16:05:06;;;;;;;30.88;11.90;;;;;;;;;;5156687;27;20434;-73
2023/10/03 16:07:52;;;;;;;34.45;11.77;;;;;;;;;;5155052;27;20044;-73
2023/10/03 16:10:38;;;;;;;29.63;11.32;;;;;;;;;;5162517;27;20002;-73
2023/10/03 16:13:23;;;;;;;33.30;12.30;;;;;;;;;;5155488;27;20328;-75
2023/10/03 16:16:09;;;;;;;34.78;12.80;;;;;;;;;;5168154;27;20074;-73
2023/10/03 16:18:56;;;;;;;30.45;12.68;;;;;;;;;;5174998;27;20093;-73
2023/10/03 16:21:42;;;;;;;26.98;12.82;;;;;;;;;;5175065;27;20019;-71
2023/10/03 16:24:27;;;;;;;35.25;11.80;;;;;;;;;;5172206;27;20019;-73
2023/10/03 16:27:13;;;;;;;28.35;11.05;;;;;;;;;;5167314;27;20066;-73
2023/10/03 16:29:59;;;;;;;26.77;11.80;;;;;;;;;;5172568;27;20026;-74
2023/10/03 16:32:44;;;;;;;35.15;11.90;;;;;;;;;;5174813;27;20079;-71